This is the latest recevied weather packets stored in our database for station/object DM5EI-L4. If no packets are shown the sender has not sent any weather packets the latest 10 day(s).
| Time | Temp. | Humidity | Pressure | Rain* | Wind** | Luminosity | Snow |
|---|---|---|---|---|---|---|---|
| 1778307730 | 9.44° C | 98% | 1022 hPa | - | - | - | - |
| 1778306829 | 8.89° C | 98% | 1022 hPa | - | - | - | - |
| 1778305927 | 8.89° C | 97% | 1022 hPa | - | - | - | - |
| 1778305026 | 8.89° C | 95% | 1022 hPa | - | - | - | - |
| 1778304125 | 12.22° C | 89% | 1022 hPa | - | - | - | - |
| 1778303224 | 7.22° C | 96% | 1022 hPa | - | - | - | - |
| 1778302323 | 5.56° C | 96% | 1022 hPa | - | - | - | - |
| 1778301422 | 5° C | 95% | 1022 hPa | - | - | - | - |
| 1778300521 | 4.44° C | 95% | 1022 hPa | - | - | - | - |
| 1778299620 | 4.44° C | 95% | 1022 hPa | - | - | - | - |
| 1778298719 | 4.44° C | 94% | 1022 hPa | - | - | - | - |
| 1778297818 | 4.44° C | 95% | 1022 hPa | - | - | - | - |
| 1778296917 | 4.44° C | 94% | 1022 hPa | - | - | - | - |
| 1778296016 | 5° C | 95% | 1022 hPa | - | - | - | - |
| 1778295114 | 5° C | 95% | 1022 hPa | - | - | - | - |
| 1778294213 | 5° C | 95% | 1022 hPa | - | - | - | - |
| 1778293312 | 5° C | 95% | 1022 hPa | - | - | - | - |
| 1778292411 | 5° C | 95% | 1022 hPa | - | - | - | - |
| 1778291510 | 5° C | 95% | 1022 hPa | - | - | - | - |
| 1778290609 | 5° C | 95% | 1022 hPa | - | - | - | - |
| 1778289707 | 5° C | 95% | 1022 hPa | - | - | - | - |
| 1778288806 | 5° C | 95% | 1022 hPa | - | - | - | - |
| 1778287905 | 5.56° C | 95% | 1022 hPa | - | - | - | - |
| 1778287004 | 5.56° C | 95% | 1022 hPa | - | - | - | - |
| 1778286103 | 5.56° C | 95% | 1022 hPa | - | - | - | - |
* Rain since midnight (hover to see other rain measurements)
** Current wind speed in m/s (hover to see current wind gust speed)